LLBG/TLV METAR and TAF weather

Enter ICAO airport designator
Station Type Date Time Source
LLBG METAR 2020/07/11 00:20 UTC NOAA

LLBG 110020Z 15004KT 9999 SCT025 24/20 Q1008 NOSIG


Station Type Date Time Source
LLBG Decoded METAR 2020/07/11 00:20 UTC NOAA

Ben-Gurion International Airport, Israel (LLBG) 32-00N 034-54E 49M
Jul 10, 2020 - 08:20 PM EDT / 2020.07.11 0020 UTC
Wind: from the SSE (150 degrees) at 5 MPH (4 KT):0
Visibility: greater than 7 mile(s):0
Sky conditions: partly cloudy
Temperature: 75 F (24 C)
Dew Point: 68 F (20 C)
Relative Humidity: 78%
Pressure (altimeter): 29.77 in. Hg (1008 hPa)
ob: LLBG 110020Z 15004KT 9999 SCT025 24/20 Q1008 NOSIG
cycle: 0

Station Type Date Time Source
LLBG TAF 2020/07/10 18:13 UTC NOAA

TAF LLBG 101709Z 1018/1118 VRB04KT 9999 FEW020 PROB30 1021/1107 BKN018
BECMG 1107/1109 28010KT FEW025 TX30/1112Z TN24/1103Z

Example: see airport list